createdAt,value
2019-02-16T00:01:14.220Z,24.77
2019-02-16T00:03:44.097Z,19.17
2019-02-16T00:06:13.792Z,22.77
2019-02-16T00:08:43.615Z,19.60
2019-02-16T00:11:13.172Z,17.87
2019-02-16T00:13:42.715Z,15.30
2019-02-16T00:16:12.273Z,12.67
2019-02-16T00:18:41.826Z,13.67
2019-02-16T00:21:11.376Z,10.67
2019-02-16T00:23:40.953Z,11.60
2019-02-16T00:26:10.488Z,8.97
2019-02-16T00:28:40.030Z,8.07
2019-02-16T00:31:09.867Z,9.17
2019-02-16T00:33:39.669Z,9.13
2019-02-16T00:36:09.208Z,9.03
2019-02-16T00:38:38.769Z,12.60
2019-02-16T00:41:08.380Z,10.03
2019-02-16T00:43:38.205Z,9.07
2019-02-16T00:46:08.014Z,9.53
2019-02-16T00:48:37.548Z,10.40
2019-02-16T00:51:13.227Z,11.53
2019-02-16T00:53:39.853Z,9.90
2019-02-16T00:56:09.620Z,12.03
2019-02-16T00:58:39.177Z,14.27
2019-02-16T01:01:08.725Z,22.47
2019-02-16T01:03:38.268Z,19.03
2019-02-16T01:06:16.864Z,20.17
2019-02-16T01:08:46.396Z,19.90
2019-02-16T01:11:16.256Z,21.90
2019-02-16T01:13:46.072Z,18.40
2019-02-16T01:16:15.884Z,18.80
2019-02-16T01:18:45.444Z,21.60
2019-02-16T01:21:22.603Z,18.90
2019-02-16T01:23:46.356Z,22.83
2019-02-16T01:26:15.900Z,22.43
2019-02-16T01:28:45.480Z,28.53
2019-02-16T01:31:15.889Z,19.90
2019-02-16T01:33:45.669Z,10.63
2019-02-16T01:36:16.109Z,14.13
2019-02-16T01:38:46.235Z,9.10
2019-02-16T01:41:16.344Z,7.93
2019-02-16T01:43:46.164Z,7.10
2019-02-16T01:46:15.700Z,7.63
2019-02-16T01:48:45.256Z,8.40
2019-02-16T01:51:15.081Z,9.70
2019-02-16T01:53:44.632Z,8.20
2019-02-16T01:56:14.498Z,8.80
2019-02-16T01:58:44.057Z,9.50
2019-02-16T02:01:13.612Z,9.00
2019-02-16T02:03:43.821Z,13.53
2019-02-16T02:06:13.640Z,15.47
2019-02-16T02:08:43.488Z,14.23
2019-02-16T02:11:13.036Z,13.37
2019-02-16T02:13:42.873Z,11.30
2019-02-16T02:16:12.721Z,10.63
2019-02-16T02:18:42.284Z,9.93
2019-02-16T02:21:12.205Z,11.43
2019-02-16T02:23:44.055Z,7.10
2019-02-16T02:26:13.595Z,8.50
2019-02-16T02:28:43.136Z,7.50
2019-02-16T02:31:12.696Z,11.13
2019-02-16T02:33:42.248Z,13.33
2019-02-16T02:36:11.784Z,6.87
2019-02-16T02:38:41.349Z,10.17
2019-02-16T02:41:10.906Z,7.83
2019-02-16T02:43:40.708Z,8.70
2019-02-16T02:46:10.256Z,8.00
2019-02-16T02:48:40.123Z,10.80
2019-02-16T02:51:09.670Z,10.27
2019-02-16T02:53:39.230Z,11.07
2019-02-16T02:56:08.772Z,10.80
2019-02-16T02:58:38.349Z,6.57
2019-02-16T03:01:08.145Z,6.17
2019-02-16T03:03:38.082Z,6.53
2019-02-16T03:06:07.624Z,8.73
2019-02-16T03:08:37.191Z,6.70
2019-02-16T03:11:06.740Z,6.53
2019-02-16T03:13:36.303Z,7.57
2019-02-16T03:16:06.944Z,7.27
2019-02-16T03:18:36.494Z,6.67
2019-02-16T03:21:06.333Z,6.10
2019-02-16T03:23:35.873Z,6.27
2019-02-16T03:26:38.881Z,7.17
2019-02-16T03:29:47.130Z,8.17
2019-02-16T03:32:41.686Z,3.40
2019-02-16T03:35:38.977Z,6.43
2019-02-16T03:38:55.593Z,7.47
2019-02-16T03:41:25.814Z,5.70
2019-02-16T03:43:55.369Z,14.73
2019-02-16T03:46:24.939Z,9.43
2019-02-16T03:49:00.550Z,9.67
2019-02-16T03:51:30.380Z,6.00
2019-02-16T03:53:59.976Z,5.93
2019-02-16T03:56:29.541Z,9.13
2019-02-16T03:58:59.109Z,7.10
2019-02-16T04:01:28.662Z,9.17
2019-02-16T04:03:58.204Z,10.43
2019-02-16T04:06:28.012Z,7.63
2019-02-16T04:08:57.560Z,7.53
2019-02-16T04:11:27.101Z,7.13
2019-02-16T04:13:56.648Z,7.40
2019-02-16T04:16:26.559Z,8.67
2019-02-16T04:18:56.359Z,7.93
2019-02-16T04:21:25.914Z,8.03
2019-02-16T04:23:55.484Z,6.47
2019-02-16T04:26:25.284Z,6.03
2019-02-16T04:28:54.822Z,6.33
2019-02-16T04:31:24.694Z,7.10
2019-02-16T04:33:54.228Z,4.80
2019-02-16T04:36:24.016Z,5.67
2019-02-16T04:38:53.568Z,6.87
2019-02-16T04:41:23.429Z,6.73
2019-02-16T04:43:53.242Z,6.10
2019-02-16T04:46:23.063Z,4.77
2019-02-16T04:48:52.609Z,9.23
2019-02-16T04:51:22.161Z,5.53
2019-02-16T04:53:51.701Z,8.87
2019-02-16T04:56:21.574Z,5.37
2019-02-16T04:58:51.444Z,6.13
2019-02-16T05:01:21.495Z,5.47
2019-02-16T05:03:51.321Z,5.30
2019-02-16T05:06:20.861Z,7.13
2019-02-16T05:08:50.424Z,7.63
2019-02-16T05:11:19.964Z,6.77
2019-02-16T05:13:49.585Z,6.70
2019-02-16T05:16:19.120Z,6.70
2019-02-16T05:18:48.977Z,5.73
2019-02-16T05:21:18.879Z,6.83
2019-02-16T05:23:48.420Z,5.57
2019-02-16T05:26:17.975Z,6.83
2019-02-16T05:28:49.504Z,4.20
2019-02-16T05:31:19.061Z,9.73
2019-02-16T05:33:48.849Z,7.77
2019-02-16T05:36:18.408Z,5.03
2019-02-16T05:38:48.120Z,5.93
2019-02-16T05:41:17.701Z,5.43
2019-02-16T05:43:47.577Z,6.90
2019-02-16T05:46:17.121Z,3.73
2019-02-16T05:48:46.670Z,5.70
2019-02-16T05:51:16.217Z,8.07
2019-02-16T05:53:45.798Z,6.60
2019-02-16T05:56:15.332Z,6.57
2019-02-16T05:58:44.901Z,6.83
2019-02-16T06:01:15.025Z,5.63
2019-02-16T06:03:44.565Z,5.17
2019-02-16T06:06:14.128Z,5.43
2019-02-16T06:08:43.676Z,6.10
2019-02-16T06:11:13.789Z,7.90
2019-02-16T06:13:43.343Z,7.40
2019-02-16T06:16:12.890Z,7.10
2019-02-16T06:18:42.428Z,8.00
2019-02-16T06:21:11.977Z,7.93
2019-02-16T06:23:42.197Z,8.53
2019-02-16T06:26:11.756Z,7.43
2019-02-16T06:28:41.612Z,8.23
2019-02-16T06:31:11.425Z,4.87
2019-02-16T06:33:41.333Z,8.10
2019-02-16T06:36:33.023Z,6.30
2019-02-16T06:39:02.654Z,8.00
2019-02-16T06:41:32.252Z,6.80
2019-02-16T06:44:01.804Z,5.47
2019-02-16T06:46:31.440Z,6.07
2019-02-16T06:49:00.963Z,4.63
2019-02-16T06:51:30.800Z,7.40
2019-02-16T06:54:00.681Z,7.00
2019-02-16T06:56:49.324Z,7.40
2019-02-16T06:59:18.941Z,5.53
2019-02-16T07:01:48.752Z,5.03
2019-02-16T07:04:18.302Z,5.10
2019-02-16T07:06:47.896Z,5.87
2019-02-16T07:09:31.191Z,5.50
2019-02-16T07:12:00.732Z,7.23
2019-02-16T07:14:31.904Z,5.17
2019-02-16T07:17:26.977Z,5.93
2019-02-16T07:19:58.703Z,6.67
2019-02-16T07:22:46.660Z,6.60
2019-02-16T07:25:16.476Z,7.70
2019-02-16T07:27:46.025Z,7.00
2019-02-16T07:30:15.641Z,6.53
2019-02-16T07:32:45.618Z,7.80
2019-02-16T07:35:15.237Z,4.67
2019-02-16T07:37:44.782Z,6.67
2019-02-16T07:40:14.341Z,7.33
2019-02-16T07:42:58.256Z,5.13
2019-02-16T07:45:51.960Z,4.53
2019-02-16T07:48:43.705Z,5.10
2019-02-16T07:51:18.984Z,7.20
2019-02-16T07:54:06.203Z,7.30
2019-02-16T07:56:46.356Z,5.53
2019-02-16T07:59:34.276Z,6.87
2019-02-16T08:02:41.701Z,7.17
2019-02-16T08:05:29.243Z,3.97
2019-02-16T08:08:22.977Z,4.10
2019-02-16T08:11:30.190Z,5.37
2019-02-16T08:14:17.761Z,4.27
2019-02-16T08:17:12.713Z,5.80
2019-02-16T08:20:16.168Z,7.47
2019-02-16T08:23:05.164Z,5.43
2019-02-16T08:25:47.781Z,8.80
2019-02-16T08:28:25.012Z,9.00
2019-02-16T08:31:16.847Z,8.37
2019-02-16T08:34:01.778Z,11.07
2019-02-16T08:36:39.760Z,10.70
2019-02-16T08:39:35.072Z,7.93
2019-02-16T08:42:12.012Z,7.27
2019-02-16T08:44:46.361Z,8.63
2019-02-16T08:47:44.256Z,4.73
2019-02-16T08:50:32.308Z,5.00
2019-02-16T08:53:10.334Z,4.20
2019-02-16T08:55:49.300Z,4.73
2019-02-16T08:58:43.977Z,4.33
2019-02-16T09:01:42.073Z,4.37
2019-02-16T09:04:23.796Z,3.60
2019-02-16T09:07:06.453Z,4.10
2019-02-16T09:09:53.769Z,3.30
2019-02-16T09:12:46.873Z,4.00
2019-02-16T09:15:35.914Z,4.77
2019-02-16T09:18:24.873Z,4.07
2019-02-16T09:21:25.629Z,4.10
2019-02-16T09:24:23.780Z,8.47
2019-02-16T09:27:18.356Z,6.50
2019-02-16T09:30:04.602Z,8.47
2019-02-16T09:32:48.961Z,8.70
2019-02-16T09:35:40.652Z,9.10
2019-02-16T09:38:35.204Z,9.43
2019-02-16T09:41:11.100Z,5.13
2019-02-16T09:43:58.824Z,8.13
2019-02-16T09:47:05.784Z,7.37
2019-02-16T09:49:54.408Z,7.83
2019-02-16T09:52:43.316Z,6.83
2019-02-16T09:55:22.140Z,6.90
2019-02-16T09:58:00.041Z,7.20
2019-02-16T10:00:48.992Z,9.90
2019-02-16T10:03:24.856Z,10.57
2019-02-16T10:06:19.849Z,8.30
2019-02-16T10:09:07.181Z,6.87
2019-02-16T10:11:48.453Z,7.70
2019-02-16T10:14:40.252Z,8.77
2019-02-16T10:17:17.194Z,6.97
2019-02-16T10:20:06.453Z,6.30
2019-02-16T10:22:58.778Z,7.07
2019-02-16T10:25:50.985Z,7.10
2019-02-16T10:28:31.352Z,5.13
2019-02-16T10:31:08.372Z,7.07
2019-02-16T10:33:45.979Z,4.93
2019-02-16T10:36:23.958Z,9.77
2019-02-16T10:39:05.974Z,5.63
2019-02-16T10:42:04.041Z,6.50
2019-02-16T10:44:43.799Z,4.10
2019-02-16T10:47:25.392Z,5.20
2019-02-16T10:50:18.019Z,5.47
2019-02-16T10:53:15.957Z,6.30
2019-02-16T10:56:03.902Z,10.23
2019-02-16T10:59:03.012Z,7.50
2019-02-16T11:02:07.466Z,6.83
2019-02-16T11:04:47.609Z,5.03
2019-02-16T11:07:42.177Z,5.23
2019-02-16T11:10:30.193Z,7.67
2019-02-16T11:13:37.100Z,7.77
2019-02-16T11:16:39.336Z,8.00
2019-02-16T11:19:28.706Z,9.10
2019-02-16T11:22:09.876Z,12.90
2019-02-16T11:25:10.548Z,13.10
2019-02-16T11:27:51.888Z,10.93
2019-02-16T11:30:39.237Z,10.30
2019-02-16T11:33:21.070Z,11.13
2019-02-16T11:35:59.435Z,8.53
2019-02-16T11:38:36.509Z,9.40
2019-02-16T11:41:29.357Z,10.63
2019-02-16T11:44:10.971Z,10.60
2019-02-16T11:46:59.205Z,11.77
2019-02-16T11:49:43.528Z,12.70
2019-02-16T11:52:22.265Z,12.13
2019-02-16T11:55:06.985Z,16.60
2019-02-16T11:57:46.963Z,15.50
2019-02-16T12:00:40.248Z,10.80
2019-02-16T12:03:24.856Z,14.23
2019-02-16T12:06:21.948Z,12.87
2019-02-16T12:09:19.741Z,13.23
2019-02-16T12:12:11.469Z,16.77
2019-02-16T12:15:09.812Z,13.60
2019-02-16T12:17:53.872Z,14.33
2019-02-16T12:20:33.933Z,15.13
2019-02-16T12:23:18.251Z,13.77
2019-02-16T12:26:24.101Z,11.93
2019-02-16T12:29:22.193Z,14.50
2019-02-16T12:32:11.150Z,14.80
2019-02-16T12:34:55.491Z,10.30
2019-02-16T12:37:31.164Z,11.93
2019-02-16T12:40:09.264Z,10.67
2019-02-16T12:43:00.447Z,12.40
2019-02-16T12:45:51.182Z,13.37
2019-02-16T12:48:47.620Z,11.40
2019-02-16T12:51:43.323Z,9.97
2019-02-16T12:54:19.664Z,12.07
2019-02-16T12:57:13.043Z,12.97
2019-02-16T12:59:51.533Z,10.90
2019-02-16T13:02:41.650Z,14.77
2019-02-16T13:05:33.376Z,8.15
2019-02-16T13:08:10.651Z,11.17
2019-02-16T13:11:02.098Z,12.60
2019-02-16T13:13:49.505Z,12.73
2019-02-16T13:16:38.165Z,17.23
2019-02-16T13:19:23.756Z,11.80
2019-02-16T13:22:01.496Z,11.37
2019-02-16T13:24:36.600Z,11.40
2019-02-16T13:27:28.913Z,13.23
2019-02-16T13:30:04.653Z,13.10
2019-02-16T13:32:57.613Z,11.07
2019-02-16T13:35:40.645Z,10.77
2019-02-16T13:38:28.076Z,9.13
2019-02-16T13:41:09.212Z,10.80
2019-02-16T13:44:01.160Z,11.27
2019-02-16T13:46:46.760Z,9.13
2019-02-16T13:49:41.387Z,11.40
2019-02-16T13:52:36.364Z,13.50
2019-02-16T13:55:21.214Z,10.27
2019-02-16T13:58:09.516Z,12.57
2019-02-16T14:00:44.038Z,13.67
2019-02-16T14:03:36.032Z,11.43
2019-02-16T14:06:18.063Z,11.53
2019-02-16T14:09:09.957Z,14.70
2019-02-16T14:11:45.802Z,9.63
2019-02-16T14:14:37.521Z,11.00
2019-02-16T14:17:17.369Z,11.70
2019-02-16T14:19:47.304Z,11.43
2019-02-16T14:22:17.177Z,10.27
2019-02-16T14:24:52.676Z,11.67
2019-02-16T14:27:22.256Z,12.03
2019-02-16T14:29:53.593Z,13.27
2019-02-16T14:32:23.220Z,10.10
2019-02-16T14:34:55.884Z,10.63
2019-02-16T14:38:00.010Z,12.27
2019-02-16T14:40:31.981Z,11.70
2019-02-16T14:43:01.953Z,10.40
2019-02-16T14:45:34.425Z,11.23
2019-02-16T14:48:04.438Z,11.90
2019-02-16T14:50:33.983Z,15.60
2019-02-16T14:53:03.637Z,12.07
2019-02-16T14:55:33.189Z,10.37
2019-02-16T14:58:02.777Z,10.13
2019-02-16T15:00:32.694Z,10.83
2019-02-16T15:03:02.384Z,11.57
2019-02-16T15:05:31.952Z,13.10
2019-02-16T15:08:01.999Z,18.00
2019-02-16T15:10:31.561Z,12.60
2019-02-16T15:13:01.429Z,11.03
2019-02-16T15:15:30.996Z,10.10
2019-02-16T15:18:00.548Z,11.03
2019-02-16T15:20:30.136Z,10.47
2019-02-16T15:22:59.704Z,14.90
2019-02-16T15:25:29.273Z,11.73
2019-02-16T15:27:59.157Z,13.47
2019-02-16T15:30:28.752Z,11.73
2019-02-16T15:32:58.672Z,12.60
2019-02-16T15:35:28.605Z,11.97
2019-02-16T15:37:58.405Z,12.70
2019-02-16T15:40:28.041Z,11.10
2019-02-16T15:42:58.024Z,11.63
2019-02-16T15:45:27.833Z,12.40
2019-02-16T15:47:57.751Z,13.07
2019-02-16T15:50:27.332Z,9.43
2019-02-16T15:52:56.982Z,11.23
2019-02-16T15:55:26.781Z,12.00
2019-02-16T15:57:56.697Z,12.63
2019-02-16T16:00:28.828Z,13.77
2019-02-16T16:02:59.702Z,12.30
2019-02-16T16:05:29.784Z,12.77
2019-02-16T16:08:36.672Z,11.33
2019-02-16T16:11:09.791Z,10.93
2019-02-16T16:14:06.386Z,13.40
2019-02-16T16:17:07.073Z,10.27
2019-02-16T16:19:43.516Z,12.67
2019-02-16T16:22:44.516Z,15.50
2019-02-16T16:25:20.315Z,14.20
2019-02-16T16:27:58.822Z,19.23
2019-02-16T16:31:00.172Z,11.73
2019-02-16T16:33:52.114Z,12.03
2019-02-16T16:36:31.132Z,10.53
2019-02-16T16:39:20.084Z,11.50
2019-02-16T16:41:58.386Z,8.83
2019-02-16T16:44:43.064Z,9.93
2019-02-16T16:47:22.696Z,10.43
2019-02-16T16:50:20.332Z,14.60
2019-02-16T16:53:08.189Z,9.43
2019-02-16T16:55:43.855Z,9.47
2019-02-16T16:58:35.389Z,9.07
2019-02-16T17:01:43.308Z,8.34
2019-02-16T17:04:24.128Z,12.70
2019-02-16T17:07:15.241Z,8.73
2019-02-16T17:10:00.716Z,11.30
2019-02-16T17:12:48.561Z,10.30
2019-02-16T17:15:40.180Z,13.37
2019-02-16T17:18:17.259Z,9.40
2019-02-16T17:21:10.188Z,11.00
2019-02-16T17:23:59.180Z,11.13
2019-02-16T17:26:50.060Z,12.00
2019-02-16T17:29:38.260Z,9.67
2019-02-16T17:32:15.493Z,12.57
2019-02-16T17:35:07.954Z,13.47
2019-02-16T17:37:44.910Z,11.70
2019-02-16T17:40:34.760Z,12.60
2019-02-16T17:43:23.487Z,11.50
2019-02-16T17:46:10.096Z,11.80
2019-02-16T17:49:01.285Z,11.77
2019-02-16T17:52:05.578Z,11.43
2019-02-16T17:54:52.908Z,11.00
2019-02-16T17:57:30.915Z,15.33
2019-02-16T18:00:18.625Z,9.80
2019-02-16T18:03:10.408Z,9.63
2019-02-16T18:05:49.715Z,13.90
2019-02-16T18:08:44.433Z,12.80
2019-02-16T18:11:35.104Z,13.57
2019-02-16T18:14:24.476Z,16.03
2019-02-16T18:17:22.292Z,17.80
2019-02-16T18:20:20.523Z,13.77
2019-02-16T18:22:55.835Z,11.63
2019-02-16T18:25:43.130Z,12.37
2019-02-16T18:28:34.629Z,15.13
2019-02-16T18:31:37.513Z,18.30
2019-02-16T18:34:16.824Z,15.20
2019-02-16T18:37:10.832Z,14.20
2019-02-16T18:40:02.771Z,12.43
2019-02-16T18:42:43.287Z,16.20
2019-02-16T18:45:28.930Z,13.63
2019-02-16T18:48:16.750Z,11.67
2019-02-16T18:51:05.755Z,16.13
2019-02-16T18:54:01.471Z,14.83
2019-02-16T18:56:48.302Z,13.03
2019-02-16T18:59:32.164Z,14.30
2019-02-16T19:02:19.982Z,14.40
2019-02-16T19:04:59.704Z,12.90
2019-02-16T19:07:58.200Z,14.87
2019-02-16T19:10:40.128Z,15.13
2019-02-16T19:13:39.103Z,12.70
2019-02-16T19:16:28.313Z,16.43
2019-02-16T19:19:10.123Z,12.13
2019-02-16T19:22:14.471Z,16.77
2019-02-16T19:24:56.179Z,12.37
2019-02-16T19:27:48.341Z,11.57
2019-02-16T19:30:30.309Z,11.53
2019-02-16T19:33:19.505Z,11.93
2019-02-16T19:36:04.513Z,14.03
2019-02-16T19:38:56.217Z,11.70
2019-02-16T19:41:40.608Z,15.47
2019-02-16T19:44:17.510Z,16.30
2019-02-16T19:47:09.584Z,17.83
2019-02-16T19:50:01.312Z,15.87
2019-02-16T19:52:48.688Z,18.50
2019-02-16T19:55:46.509Z,13.33
2019-02-16T19:58:38.558Z,13.10
2019-02-16T20:01:17.469Z,17.43
2019-02-16T20:03:59.644Z,16.67
2019-02-16T20:06:40.937Z,12.77
2019-02-16T20:09:16.772Z,19.90
2019-02-16T20:12:08.456Z,17.23
2019-02-16T20:15:06.348Z,16.17
2019-02-16T20:17:49.137Z,15.90
2019-02-16T20:20:33.872Z,14.30
2019-02-16T20:23:22.932Z,17.07
2019-02-16T20:26:26.968Z,17.70
2019-02-16T20:29:14.705Z,18.03
2019-02-16T20:32:15.600Z,17.00
2019-02-16T20:35:07.654Z,19.67
2019-02-16T20:38:02.729Z,14.63
2019-02-16T20:40:36.779Z,19.00
2019-02-16T20:43:18.349Z,17.17
2019-02-16T20:46:10.588Z,16.57
2019-02-16T20:49:05.445Z,19.53
2019-02-16T20:52:00.192Z,16.43
2019-02-16T20:54:52.241Z,12.33
2019-02-16T20:57:31.626Z,15.23
2019-02-16T21:00:26.979Z,16.10
2019-02-16T21:03:24.565Z,11.70
2019-02-16T21:06:22.829Z,15.53
2019-02-16T21:09:14.555Z,15.00
2019-02-16T21:12:21.676Z,17.70
2019-02-16T21:15:09.111Z,16.90
2019-02-16T21:17:57.769Z,20.70
2019-02-16T21:20:45.163Z,12.87
2019-02-16T21:23:30.796Z,17.30
2019-02-16T21:26:36.470Z,16.37
2019-02-16T21:29:34.824Z,17.73
2019-02-16T21:32:19.609Z,16.83
2019-02-16T21:35:19.328Z,14.47
2019-02-16T21:38:02.501Z,17.90
2019-02-16T21:41:06.505Z,14.80
2019-02-16T21:43:44.126Z,12.77
2019-02-16T21:46:35.660Z,13.60
2019-02-16T21:49:33.538Z,20.97
2019-02-16T21:52:25.459Z,14.43
2019-02-16T21:55:04.397Z,18.93
2019-02-16T21:57:41.762Z,16.53
2019-02-16T22:00:31.438Z,18.77
2019-02-16T22:03:38.883Z,16.23
2019-02-16T22:06:26.480Z,18.60
2019-02-16T22:09:20.849Z,17.97
2019-02-16T22:12:08.152Z,15.63
2019-02-16T22:14:37.695Z,16.53
2019-02-16T22:17:07.260Z,18.27
2019-02-16T22:19:36.810Z,16.97
2019-02-16T22:22:06.407Z,15.83
2019-02-16T22:24:36.060Z,17.23
2019-02-16T22:27:06.210Z,16.10
2019-02-16T22:29:35.770Z,15.00
2019-02-16T22:32:05.410Z,20.93
2019-02-16T22:34:34.996Z,19.21
2019-02-16T22:37:04.546Z,21.10
2019-02-16T22:39:34.121Z,23.27
2019-02-16T22:42:04.048Z,22.73
2019-02-16T22:44:33.964Z,21.20
2019-02-16T22:47:04.188Z,20.73
2019-02-16T22:49:33.788Z,20.50
2019-02-16T22:52:03.600Z,16.40
2019-02-16T22:54:33.412Z,16.60
2019-02-16T22:57:03.001Z,18.73
2019-02-16T22:59:32.837Z,20.17
2019-02-16T23:02:02.653Z,23.40
2019-02-16T23:04:32.457Z,20.90
2019-02-16T23:07:02.093Z,15.47
2019-02-16T23:09:31.646Z,20.57
2019-02-16T23:12:01.505Z,21.83
2019-02-16T23:14:31.449Z,27.10
2019-02-16T23:17:01.310Z,19.97
2019-02-16T23:19:30.939Z,19.33
2019-02-16T23:22:00.572Z,18.63
2019-02-16T23:24:30.221Z,20.30
2019-02-16T23:27:00.044Z,20.83
2019-02-16T23:29:29.672Z,20.13
2019-02-16T23:31:59.557Z,19.40
2019-02-16T23:34:29.796Z,20.27
2019-02-16T23:36:59.342Z,16.10
2019-02-16T23:39:36.364Z,19.73
2019-02-16T23:42:06.376Z,18.47
2019-02-16T23:44:35.921Z,21.67
2019-02-16T23:47:05.787Z,25.07
2019-02-16T23:49:35.324Z,18.70
2019-02-16T23:52:05.209Z,19.23
2019-02-16T23:54:34.773Z,19.00
2019-02-16T23:57:04.630Z,19.77
2019-02-16T23:59:34.167Z,15.43
